sensor_id;sensor_type;location;lat;lon;timestamp;temperature;humidity
25280;DHT22;13225;47.804;12.116;2023-05-13T00:00:36;10.80;99.90
25280;DHT22;13225;47.804;12.116;2023-05-13T00:03:01;10.80;99.90
25280;DHT22;13225;47.804;12.116;2023-05-13T00:05:27;10.80;99.90
25280;DHT22;13225;47.804;12.116;2023-05-13T00:07:53;10.80;99.90
25280;DHT22;13225;47.804;12.116;2023-05-13T00:10:18;10.80;99.90
25280;DHT22;13225;47.804;12.116;2023-05-13T00:12:44;10.80;99.90
25280;DHT22;13225;47.804;12.116;2023-05-13T00:15:10;10.80;99.90
25280;DHT22;13225;47.804;12.116;2023-05-13T00:17:36;10.80;99.90
25280;DHT22;13225;47.804;12.116;2023-05-13T00:20:01;10.80;99.90
25280;DHT22;13225;47.804;12.116;2023-05-13T00:22:28;10.80;99.90
25280;DHT22;13225;47.804;12.116;2023-05-13T00:24:54;10.80;99.90
25280;DHT22;13225;47.804;12.116;2023-05-13T00:27:20;10.70;99.90
25280;DHT22;13225;47.804;12.116;2023-05-13T00:29:45;10.70;99.90
25280;DHT22;13225;47.804;12.116;2023-05-13T00:32:11;10.80;99.90
25280;DHT22;13225;47.804;12.116;2023-05-13T00:34:36;10.80;99.90
25280;DHT22;13225;47.804;12.116;2023-05-13T00:37:02;10.80;99.90
25280;DHT22;13225;47.804;12.116;2023-05-13T00:39:28;10.80;99.90
25280;DHT22;13225;47.804;12.116;2023-05-13T00:41:53;10.70;99.90
25280;DHT22;13225;47.804;12.116;2023-05-13T00:44:19;10.80;99.90
25280;DHT22;13225;47.804;12.116;2023-05-13T00:46:44;10.80;99.90
25280;DHT22;13225;47.804;12.116;2023-05-13T00:49:10;10.70;99.90
25280;DHT22;13225;47.804;12.116;2023-05-13T00:51:36;10.80;99.90
25280;DHT22;13225;47.804;12.116;2023-05-13T00:54:01;10.80;99.90
25280;DHT22;13225;47.804;12.116;2023-05-13T00:56:27;10.70;99.90
25280;DHT22;13225;47.804;12.116;2023-05-13T00:58:53;10.70;99.90
25280;DHT22;13225;47.804;12.116;2023-05-13T01:07:08;10.70;99.90
25280;DHT22;13225;47.804;12.116;2023-05-13T01:10:07;10.70;99.90
25280;DHT22;13225;47.804;12.116;2023-05-13T01:12:40;10.70;99.90
25280;DHT22;13225;47.804;12.116;2023-05-13T01:15:14;10.70;99.90
25280;DHT22;13225;47.804;12.116;2023-05-13T01:17:49;10.70;99.90
25280;DHT22;13225;47.804;12.116;2023-05-13T01:20:21;10.70;99.90
25280;DHT22;13225;47.804;12.116;2023-05-13T01:22:46;10.70;99.90
25280;DHT22;13225;47.804;12.116;2023-05-13T01:25:12;10.70;99.90
25280;DHT22;13225;47.804;12.116;2023-05-13T01:27:38;10.70;99.90
25280;DHT22;13225;47.804;12.116;2023-05-13T01:30:04;10.70;99.90
25280;DHT22;13225;47.804;12.116;2023-05-13T01:32:30;10.70;99.90
25280;DHT22;13225;47.804;12.116;2023-05-13T01:34:56;10.70;99.90
25280;DHT22;13225;47.804;12.116;2023-05-13T01:37:22;10.70;99.90
25280;DHT22;13225;47.804;12.116;2023-05-13T01:39:48;10.70;99.90
25280;DHT22;13225;47.804;12.116;2023-05-13T01:42:14;10.70;99.90
25280;DHT22;13225;47.804;12.116;2023-05-13T01:44:40;10.70;99.90
25280;DHT22;13225;47.804;12.116;2023-05-13T01:47:06;10.80;99.90
25280;DHT22;13225;47.804;12.116;2023-05-13T01:49:31;10.80;99.90
25280;DHT22;13225;47.804;12.116;2023-05-13T01:51:57;10.80;99.90
25280;DHT22;13225;47.804;12.116;2023-05-13T01:54:22;10.80;99.90
25280;DHT22;13225;47.804;12.116;2023-05-13T01:56:50;10.80;99.90
25280;DHT22;13225;47.804;12.116;2023-05-13T01:59:15;10.80;99.90
25280;DHT22;13225;47.804;12.116;2023-05-13T02:01:41;10.80;99.90
25280;DHT22;13225;47.804;12.116;2023-05-13T02:04:06;10.80;99.90
25280;DHT22;13225;47.804;12.116;2023-05-13T02:06:32;10.80;99.90
25280;DHT22;13225;47.804;12.116;2023-05-13T02:08:57;10.80;99.90
25280;DHT22;13225;47.804;12.116;2023-05-13T02:11:23;10.80;99.90
25280;DHT22;13225;47.804;12.116;2023-05-13T02:13:49;10.80;99.90
25280;DHT22;13225;47.804;12.116;2023-05-13T02:16:18;10.80;99.90
25280;DHT22;13225;47.804;12.116;2023-05-13T02:18:44;10.80;99.90
25280;DHT22;13225;47.804;12.116;2023-05-13T02:21:09;10.80;99.90
25280;DHT22;13225;47.804;12.116;2023-05-13T02:23:35;10.80;99.90
25280;DHT22;13225;47.804;12.116;2023-05-13T02:26:01;10.80;99.90
25280;DHT22;13225;47.804;12.116;2023-05-13T02:28:26;10.80;99.90
25280;DHT22;13225;47.804;12.116;2023-05-13T02:30:52;10.70;99.90
25280;DHT22;13225;47.804;12.116;2023-05-13T02:33:17;10.70;99.90
25280;DHT22;13225;47.804;12.116;2023-05-13T02:35:43;10.70;99.90
25280;DHT22;13225;47.804;12.116;2023-05-13T02:38:09;10.70;99.90
25280;DHT22;13225;47.804;12.116;2023-05-13T02:40:35;10.70;99.90
25280;DHT22;13225;47.804;12.116;2023-05-13T02:43:00;10.70;99.90
25280;DHT22;13225;47.804;12.116;2023-05-13T02:45:26;10.70;99.90
25280;DHT22;13225;47.804;12.116;2023-05-13T02:47:52;10.70;99.90
25280;DHT22;13225;47.804;12.116;2023-05-13T02:50:18;10.70;99.90
25280;DHT22;13225;47.804;12.116;2023-05-13T02:52:43;10.60;99.90
25280;DHT22;13225;47.804;12.116;2023-05-13T02:55:09;10.60;99.90
25280;DHT22;13225;47.804;12.116;2023-05-13T02:57:35;10.60;99.90
25280;DHT22;13225;47.804;12.116;2023-05-13T03:00:03;10.60;99.90
25280;DHT22;13225;47.804;12.116;2023-05-13T03:02:29;10.60;99.90
25280;DHT22;13225;47.804;12.116;2023-05-13T03:04:55;10.60;99.90
25280;DHT22;13225;47.804;12.116;2023-05-13T03:07:21;10.70;99.90
25280;DHT22;13225;47.804;12.116;2023-05-13T03:09:47;10.70;99.90
25280;DHT22;13225;47.804;12.116;2023-05-13T03:12:12;10.60;99.90
25280;DHT22;13225;47.804;12.116;2023-05-13T03:14:38;10.60;99.90
25280;DHT22;13225;47.804;12.116;2023-05-13T03:17:05;10.60;99.90
25280;DHT22;13225;47.804;12.116;2023-05-13T03:19:31;10.60;99.90
25280;DHT22;13225;47.804;12.116;2023-05-13T03:21:57;10.50;99.90
25280;DHT22;13225;47.804;12.116;2023-05-13T03:24:23;10.50;99.90
25280;DHT22;13225;47.804;12.116;2023-05-13T03:26:48;10.60;99.90
25280;DHT22;13225;47.804;12.116;2023-05-13T03:29:14;10.60;99.90
25280;DHT22;13225;47.804;12.116;2023-05-13T03:31:40;10.60;99.90
25280;DHT22;13225;47.804;12.116;2023-05-13T03:34:05;10.50;99.90
25280;DHT22;13225;47.804;12.116;2023-05-13T03:36:31;10.50;99.90
25280;DHT22;13225;47.804;12.116;2023-05-13T03:38:57;10.60;99.90
25280;DHT22;13225;47.804;12.116;2023-05-13T03:41:22;10.50;99.90
25280;DHT22;13225;47.804;12.116;2023-05-13T03:43:48;10.50;99.90
25280;DHT22;13225;47.804;12.116;2023-05-13T03:46:13;10.50;99.90
25280;DHT22;13225;47.804;12.116;2023-05-13T03:48:39;10.50;99.90
25280;DHT22;13225;47.804;12.116;2023-05-13T03:51:05;10.60;99.90
25280;DHT22;13225;47.804;12.116;2023-05-13T03:53:31;10.50;99.90
25280;DHT22;13225;47.804;12.116;2023-05-13T03:55:56;10.60;99.90
25280;DHT22;13225;47.804;12.116;2023-05-13T03:58:22;10.60;99.90
25280;DHT22;13225;47.804;12.116;2023-05-13T04:00:48;10.50;99.90
25280;DHT22;13225;47.804;12.116;2023-05-13T04:03:14;10.60;99.90
25280;DHT22;13225;47.804;12.116;2023-05-13T04:05:40;10.60;99.90
25280;DHT22;13225;47.804;12.116;2023-05-13T04:08:06;10.60;99.90
25280;DHT22;13225;47.804;12.116;2023-05-13T04:10:32;10.60;99.90
25280;DHT22;13225;47.804;12.116;2023-05-13T04:12:58;10.70;99.90
25280;DHT22;13225;47.804;12.116;2023-05-13T04:15:23;10.60;99.90
25280;DHT22;13225;47.804;12.116;2023-05-13T04:17:49;10.60;99.90
25280;DHT22;13225;47.804;12.116;2023-05-13T04:20:15;10.60;99.90
25280;DHT22;13225;47.804;12.116;2023-05-13T04:22:41;10.60;99.90
25280;DHT22;13225;47.804;12.116;2023-05-13T04:25:06;10.70;99.90
25280;DHT22;13225;47.804;12.116;2023-05-13T04:27:32;10.70;99.90
25280;DHT22;13225;47.804;12.116;2023-05-13T04:29:58;10.70;99.90
25280;DHT22;13225;47.804;12.116;2023-05-13T04:32:23;10.70;99.90
25280;DHT22;13225;47.804;12.116;2023-05-13T04:34:49;10.70;99.90
25280;DHT22;13225;47.804;12.116;2023-05-13T04:37:16;10.70;99.90
25280;DHT22;13225;47.804;12.116;2023-05-13T04:39:45;10.70;99.90
25280;DHT22;13225;47.804;12.116;2023-05-13T04:42:11;10.80;99.90
25280;DHT22;13225;47.804;12.116;2023-05-13T04:44:37;10.70;99.90
25280;DHT22;13225;47.804;12.116;2023-05-13T04:47:02;10.80;99.90
25280;DHT22;13225;47.804;12.116;2023-05-13T04:49:28;10.80;99.90
25280;DHT22;13225;47.804;12.116;2023-05-13T04:51:54;10.80;99.90
25280;DHT22;13225;47.804;12.116;2023-05-13T04:54:19;10.80;99.90
25280;DHT22;13225;47.804;12.116;2023-05-13T04:56:45;10.80;99.90
25280;DHT22;13225;47.804;12.116;2023-05-13T04:59:11;10.90;99.90
25280;DHT22;13225;47.804;12.116;2023-05-13T05:01:36;10.80;99.90
25280;DHT22;13225;47.804;12.116;2023-05-13T05:04:02;10.90;99.90
25280;DHT22;13225;47.804;12.116;2023-05-13T05:06:27;10.90;99.90
25280;DHT22;13225;47.804;12.116;2023-05-13T05:08:53;10.80;99.90
25280;DHT22;13225;47.804;12.116;2023-05-13T05:11:18;10.90;99.90
25280;DHT22;13225;47.804;12.116;2023-05-13T05:13:44;10.90;99.90
25280;DHT22;13225;47.804;12.116;2023-05-13T05:16:09;10.90;99.90
25280;DHT22;13225;47.804;12.116;2023-05-13T05:18:35;11.00;99.90
25280;DHT22;13225;47.804;12.116;2023-05-13T05:21:01;11.00;99.90
25280;DHT22;13225;47.804;12.116;2023-05-13T05:23:27;11.10;99.90
25280;DHT22;13225;47.804;12.116;2023-05-13T05:25:52;11.00;99.90
25280;DHT22;13225;47.804;12.116;2023-05-13T05:28:18;11.10;99.90
25280;DHT22;13225;47.804;12.116;2023-05-13T05:30:44;11.10;99.90
25280;DHT22;13225;47.804;12.116;2023-05-13T05:33:10;11.10;99.90
25280;DHT22;13225;47.804;12.116;2023-05-13T05:35:35;11.10;99.90
25280;DHT22;13225;47.804;12.116;2023-05-13T05:38:03;11.10;99.90
25280;DHT22;13225;47.804;12.116;2023-05-13T05:40:32;11.10;99.90
25280;DHT22;13225;47.804;12.116;2023-05-13T05:42:57;11.10;99.90
25280;DHT22;13225;47.804;12.116;2023-05-13T05:45:23;11.10;99.90
25280;DHT22;13225;47.804;12.116;2023-05-13T05:47:49;11.10;99.90
25280;DHT22;13225;47.804;12.116;2023-05-13T05:50:14;11.10;99.90
25280;DHT22;13225;47.804;12.116;2023-05-13T05:52:40;11.10;99.90
25280;DHT22;13225;47.804;12.116;2023-05-13T05:55:06;11.10;99.90
25280;DHT22;13225;47.804;12.116;2023-05-13T05:57:32;11.10;99.90
25280;DHT22;13225;47.804;12.116;2023-05-13T05:59:57;11.10;99.90
25280;DHT22;13225;47.804;12.116;2023-05-13T06:02:23;11.10;99.90
25280;DHT22;13225;47.804;12.116;2023-05-13T06:04:48;11.10;99.90
25280;DHT22;13225;47.804;12.116;2023-05-13T06:07:14;11.10;99.90
25280;DHT22;13225;47.804;12.116;2023-05-13T06:09:39;11.20;99.90
25280;DHT22;13225;47.804;12.116;2023-05-13T06:12:05;11.20;99.90
25280;DHT22;13225;47.804;12.116;2023-05-13T06:14:31;11.30;99.90
25280;DHT22;13225;47.804;12.116;2023-05-13T06:16:56;11.40;99.90
25280;DHT22;13225;47.804;12.116;2023-05-13T06:19:22;11.40;99.90
25280;DHT22;13225;47.804;12.116;2023-05-13T06:21:48;11.50;99.90
25280;DHT22;13225;47.804;12.116;2023-05-13T06:24:13;11.60;99.90
25280;DHT22;13225;47.804;12.116;2023-05-13T06:26:39;11.60;99.90
25280;DHT22;13225;47.804;12.116;2023-05-13T06:29:04;11.60;99.90
25280;DHT22;13225;47.804;12.116;2023-05-13T06:31:30;11.60;99.90
25280;DHT22;13225;47.804;12.116;2023-05-13T06:33:55;11.60;99.90
25280;DHT22;13225;47.804;12.116;2023-05-13T06:36:21;11.70;99.90
25280;DHT22;13225;47.804;12.116;2023-05-13T06:38:47;11.80;99.90
25280;DHT22;13225;47.804;12.116;2023-05-13T06:41:12;11.80;99.90
25280;DHT22;13225;47.804;12.116;2023-05-13T06:43:38;11.80;99.90
25280;DHT22;13225;47.804;12.116;2023-05-13T06:46:03;11.80;99.90
25280;DHT22;13225;47.804;12.116;2023-05-13T06:48:30;11.90;99.90
25280;DHT22;13225;47.804;12.116;2023-05-13T06:50:55;11.90;99.90
25280;DHT22;13225;47.804;12.116;2023-05-13T06:53:21;12.10;99.90
25280;DHT22;13225;47.804;12.116;2023-05-13T06:55:47;12.10;99.90
25280;DHT22;13225;47.804;12.116;2023-05-13T06:58:12;12.20;99.90
25280;DHT22;13225;47.804;12.116;2023-05-13T07:00:39;12.20;99.90
25280;DHT22;13225;47.804;12.116;2023-05-13T07:03:06;12.10;99.90
25280;DHT22;13225;47.804;12.116;2023-05-13T07:05:32;12.10;99.90
25280;DHT22;13225;47.804;12.116;2023-05-13T07:07:58;12.10;99.90
25280;DHT22;13225;47.804;12.116;2023-05-13T07:10:24;12.20;99.90
25280;DHT22;13225;47.804;12.116;2023-05-13T07:12:49;12.30;99.90
25280;DHT22;13225;47.804;12.116;2023-05-13T07:15:15;12.20;99.90
25280;DHT22;13225;47.804;12.116;2023-05-13T07:17:41;12.30;99.90
25280;DHT22;13225;47.804;12.116;2023-05-13T07:20:08;12.40;99.90
25280;DHT22;13225;47.804;12.116;2023-05-13T07:22:34;12.40;99.90
25280;DHT22;13225;47.804;12.116;2023-05-13T07:25:00;12.50;99.90
25280;DHT22;13225;47.804;12.116;2023-05-13T07:27:26;12.60;99.90
25280;DHT22;13225;47.804;12.116;2023-05-13T07:29:51;12.60;99.90
25280;DHT22;13225;47.804;12.116;2023-05-13T07:32:17;12.80;99.90
25280;DHT22;13225;47.804;12.116;2023-05-13T07:34:43;12.90;99.90
25280;DHT22;13225;47.804;12.116;2023-05-13T07:37:08;13.00;99.90
25280;DHT22;13225;47.804;12.116;2023-05-13T07:39:34;13.00;99.90
25280;DHT22;13225;47.804;12.116;2023-05-13T07:42:00;13.20;99.90
25280;DHT22;13225;47.804;12.116;2023-05-13T07:44:25;13.40;99.90
25280;DHT22;13225;47.804;12.116;2023-05-13T07:46:51;13.50;99.90
25280;DHT22;13225;47.804;12.116;2023-05-13T07:49:18;13.60;99.90
25280;DHT22;13225;47.804;12.116;2023-05-13T07:51:44;13.70;99.90
25280;DHT22;13225;47.804;12.116;2023-05-13T07:54:10;13.70;99.90
25280;DHT22;13225;47.804;12.116;2023-05-13T07:56:35;13.70;99.90
25280;DHT22;13225;47.804;12.116;2023-05-13T07:59:02;13.50;99.90
25280;DHT22;13225;47.804;12.116;2023-05-13T08:01:28;13.30;99.90
25280;DHT22;13225;47.804;12.116;2023-05-13T08:03:54;13.30;99.90
25280;DHT22;13225;47.804;12.116;2023-05-13T08:06:20;13.30;99.90
25280;DHT22;13225;47.804;12.116;2023-05-13T08:08:45;13.20;99.90
25280;DHT22;13225;47.804;12.116;2023-05-13T08:11:11;13.20;99.90
25280;DHT22;13225;47.804;12.116;2023-05-13T08:13:38;13.20;99.90
25280;DHT22;13225;47.804;12.116;2023-05-13T08:16:04;13.10;99.90
25280;DHT22;13225;47.804;12.116;2023-05-13T08:18:31;13.20;99.90
25280;DHT22;13225;47.804;12.116;2023-05-13T08:20:57;13.10;99.90
25280;DHT22;13225;47.804;12.116;2023-05-13T08:23:22;13.10;99.90
25280;DHT22;13225;47.804;12.116;2023-05-13T08:25:50;13.40;99.90
25280;DHT22;13225;47.804;12.116;2023-05-13T08:28:15;13.40;99.90
25280;DHT22;13225;47.804;12.116;2023-05-13T08:30:41;13.50;99.90
25280;DHT22;13225;47.804;12.116;2023-05-13T08:33:09;13.40;99.90
25280;DHT22;13225;47.804;12.116;2023-05-13T08:35:35;13.50;99.90
25280;DHT22;13225;47.804;12.116;2023-05-13T08:38:01;13.60;99.90
25280;DHT22;13225;47.804;12.116;2023-05-13T08:40:30;13.70;99.90
25280;DHT22;13225;47.804;12.116;2023-05-13T08:42:56;14.00;99.90
25280;DHT22;13225;47.804;12.116;2023-05-13T08:45:27;14.20;99.90
25280;DHT22;13225;47.804;12.116;2023-05-13T08:47:56;14.40;99.90
25280;DHT22;13225;47.804;12.116;2023-05-13T08:50:22;14.50;99.90
25280;DHT22;13225;47.804;12.116;2023-05-13T08:52:52;14.60;99.90
25280;DHT22;13225;47.804;12.116;2023-05-13T08:55:21;14.90;99.90
25280;DHT22;13225;47.804;12.116;2023-05-13T08:57:48;15.00;99.90
25280;DHT22;13225;47.804;12.116;2023-05-13T09:00:14;14.90;99.90
25280;DHT22;13225;47.804;12.116;2023-05-13T09:02:41;14.80;99.90
25280;DHT22;13225;47.804;12.116;2023-05-13T09:05:07;14.90;99.90
25280;DHT22;13225;47.804;12.116;2023-05-13T09:07:34;15.00;99.90
25280;DHT22;13225;47.804;12.116;2023-05-13T09:10:01;14.80;99.90
25280;DHT22;13225;47.804;12.116;2023-05-13T09:12:45;14.80;99.90
25280;DHT22;13225;47.804;12.116;2023-05-13T09:17:46;14.70;99.90
25280;DHT22;13225;47.804;12.116;2023-05-13T09:20:14;14.70;99.90
25280;DHT22;13225;47.804;12.116;2023-05-13T09:22:52;14.60;99.90
25280;DHT22;13225;47.804;12.116;2023-05-13T09:25:20;14.40;99.90
25280;DHT22;13225;47.804;12.116;2023-05-13T09:27:50;14.20;99.90
25280;DHT22;13225;47.804;12.116;2023-05-13T09:30:16;14.10;99.90
25280;DHT22;13225;47.804;12.116;2023-05-13T09:32:44;14.20;99.90
25280;DHT22;13225;47.804;12.116;2023-05-13T09:35:13;14.00;99.90
25280;DHT22;13225;47.804;12.116;2023-05-13T09:37:45;14.20;99.90
25280;DHT22;13225;47.804;12.116;2023-05-13T09:40:15;14.40;99.90
25280;DHT22;13225;47.804;12.116;2023-05-13T09:42:43;14.60;99.90
25280;DHT22;13225;47.804;12.116;2023-05-13T09:45:10;14.80;99.90
25280;DHT22;13225;47.804;12.116;2023-05-13T09:47:36;15.00;99.90
25280;DHT22;13225;47.804;12.116;2023-05-13T09:50:02;15.10;99.90
25280;DHT22;13225;47.804;12.116;2023-05-13T09:52:32;15.40;99.90
25280;DHT22;13225;47.804;12.116;2023-05-13T09:54:58;15.30;99.90
25280;DHT22;13225;47.804;12.116;2023-05-13T09:57:27;15.50;99.90
25280;DHT22;13225;47.804;12.116;2023-05-13T10:00:04;15.40;99.90
25280;DHT22;13225;47.804;12.116;2023-05-13T10:02:34;15.30;99.90
25280;DHT22;13225;47.804;12.116;2023-05-13T10:05:00;15.30;99.90
25280;DHT22;13225;47.804;12.116;2023-05-13T10:07:27;15.30;99.90
25280;DHT22;13225;47.804;12.116;2023-05-13T10:09:57;15.10;99.90
25280;DHT22;13225;47.804;12.116;2023-05-13T10:12:26;15.00;99.90
25280;DHT22;13225;47.804;12.116;2023-05-13T10:14:53;15.10;99.90
25280;DHT22;13225;47.804;12.116;2023-05-13T10:17:23;15.10;99.90
25280;DHT22;13225;47.804;12.116;2023-05-13T10:19:50;15.10;99.90
25280;DHT22;13225;47.804;12.116;2023-05-13T10:22:30;15.30;99.90
25280;DHT22;13225;47.804;12.116;2023-05-13T10:24:57;15.40;99.90
25280;DHT22;13225;47.804;12.116;2023-05-13T10:27:29;15.40;99.90
25280;DHT22;13225;47.804;12.116;2023-05-13T10:29:56;15.90;99.90
25280;DHT22;13225;47.804;12.116;2023-05-13T10:32:24;16.30;99.90
25280;DHT22;13225;47.804;12.116;2023-05-13T10:35:01;16.70;99.90
25280;DHT22;13225;47.804;12.116;2023-05-13T10:40:54;16.70;99.90
25280;DHT22;13225;47.804;12.116;2023-05-13T10:43:24;16.50;99.90
25280;DHT22;13225;47.804;12.116;2023-05-13T10:45:59;16.40;99.90
25280;DHT22;13225;47.804;12.116;2023-05-13T10:48:25;16.40;99.90
25280;DHT22;13225;47.804;12.116;2023-05-13T10:50:58;16.70;99.90
25280;DHT22;13225;47.804;12.116;2023-05-13T10:53:30;16.30;99.90
25280;DHT22;13225;47.804;12.116;2023-05-13T10:55:58;16.10;99.90
25280;DHT22;13225;47.804;12.116;2023-05-13T10:58:28;16.10;99.90
25280;DHT22;13225;47.804;12.116;2023-05-13T11:01:17;16.10;99.90
25280;DHT22;13225;47.804;12.116;2023-05-13T11:03:51;16.10;99.90
25280;DHT22;13225;47.804;12.116;2023-05-13T11:06:19;15.90;99.90
25280;DHT22;13225;47.804;12.116;2023-05-13T11:08:46;15.70;99.90
25280;DHT22;13225;47.804;12.116;2023-05-13T11:11:22;15.50;99.90
25280;DHT22;13225;47.804;12.116;2023-05-13T11:13:49;15.30;99.90
25280;DHT22;13225;47.804;12.116;2023-05-13T11:16:15;15.30;99.90
25280;DHT22;13225;47.804;12.116;2023-05-13T11:18:41;15.10;99.90
25280;DHT22;13225;47.804;12.116;2023-05-13T11:21:07;15.10;99.90
25280;DHT22;13225;47.804;12.116;2023-05-13T11:23:49;15.00;99.90
25280;DHT22;13225;47.804;12.116;2023-05-13T11:26:15;15.20;99.90
25280;DHT22;13225;47.804;12.116;2023-05-13T11:29:04;15.00;99.90
25280;DHT22;13225;47.804;12.116;2023-05-13T11:31:50;14.90;99.90
25280;DHT22;13225;47.804;12.116;2023-05-13T11:34:21;14.80;99.90
25280;DHT22;13225;47.804;12.116;2023-05-13T11:39:20;15.30;99.90
25280;DHT22;13225;47.804;12.116;2023-05-13T11:41:49;15.40;99.90
25280;DHT22;13225;47.804;12.116;2023-05-13T11:44:17;15.40;99.90
25280;DHT22;13225;47.804;12.116;2023-05-13T11:47:00;15.30;99.90
25280;DHT22;13225;47.804;12.116;2023-05-13T11:52:16;15.60;99.90
25280;DHT22;13225;47.804;12.116;2023-05-13T11:54:47;15.70;99.90
25280;DHT22;13225;47.804;12.116;2023-05-13T11:59:49;15.80;99.90
25280;DHT22;13225;47.804;12.116;2023-05-13T12:02:14;15.90;99.90
25280;DHT22;13225;47.804;12.116;2023-05-13T12:04:40;15.90;99.90
25280;DHT22;13225;47.804;12.116;2023-05-13T12:07:10;16.10;99.90
25280;DHT22;13225;47.804;12.116;2023-05-13T12:09:36;15.90;99.90
25280;DHT22;13225;47.804;12.116;2023-05-13T12:12:02;15.70;99.90
25280;DHT22;13225;47.804;12.116;2023-05-13T12:14:28;15.90;99.90
25280;DHT22;13225;47.804;12.116;2023-05-13T12:16:54;15.90;99.90
25280;DHT22;13225;47.804;12.116;2023-05-13T12:19:20;16.10;99.90
25280;DHT22;13225;47.804;12.116;2023-05-13T12:21:49;16.10;99.90
25280;DHT22;13225;47.804;12.116;2023-05-13T12:24:20;16.40;99.90
25280;DHT22;13225;47.804;12.116;2023-05-13T12:26:46;16.50;99.90
25280;DHT22;13225;47.804;12.116;2023-05-13T12:29:12;16.60;99.90
25280;DHT22;13225;47.804;12.116;2023-05-13T12:31:40;16.40;99.90
25280;DHT22;13225;47.804;12.116;2023-05-13T12:34:06;16.20;99.90
25280;DHT22;13225;47.804;12.116;2023-05-13T12:36:35;16.00;99.90
25280;DHT22;13225;47.804;12.116;2023-05-13T12:39:09;15.60;99.90
25280;DHT22;13225;47.804;12.116;2023-05-13T12:41:36;15.60;99.90
25280;DHT22;13225;47.804;12.116;2023-05-13T12:44:13;15.50;99.90
25280;DHT22;13225;47.804;12.116;2023-05-13T12:46:52;15.50;99.90
25280;DHT22;13225;47.804;12.116;2023-05-13T12:49:18;15.50;99.90
25280;DHT22;13225;47.804;12.116;2023-05-13T12:51:44;15.50;99.90
25280;DHT22;13225;47.804;12.116;2023-05-13T12:54:10;15.40;99.90
25280;DHT22;13225;47.804;12.116;2023-05-13T12:56:36;15.60;99.90
25280;DHT22;13225;47.804;12.116;2023-05-13T12:59:04;15.70;99.90
25280;DHT22;13225;47.804;12.116;2023-05-13T13:01:30;16.20;99.90
25280;DHT22;13225;47.804;12.116;2023-05-13T13:03:56;16.30;99.90
25280;DHT22;13225;47.804;12.116;2023-05-13T13:06:21;16.50;99.90
25280;DHT22;13225;47.804;12.116;2023-05-13T13:08:47;17.10;99.90
25280;DHT22;13225;47.804;12.116;2023-05-13T13:11:13;17.40;99.90
25280;DHT22;13225;47.804;12.116;2023-05-13T13:13:45;18.40;99.90
25280;DHT22;13225;47.804;12.116;2023-05-13T13:16:11;19.10;99.90
25280;DHT22;13225;47.804;12.116;2023-05-13T13:18:37;19.10;99.90
25280;DHT22;13225;47.804;12.116;2023-05-13T13:21:03;18.90;99.90
25280;DHT22;13225;47.804;12.116;2023-05-13T13:23:30;18.30;99.90
25280;DHT22;13225;47.804;12.116;2023-05-13T13:25:55;17.60;99.90
25280;DHT22;13225;47.804;12.116;2023-05-13T13:28:24;17.50;99.90
25280;DHT22;13225;47.804;12.116;2023-05-13T13:30:50;17.20;99.90
25280;DHT22;13225;47.804;12.116;2023-05-13T13:33:15;17.20;99.90
25280;DHT22;13225;47.804;12.116;2023-05-13T13:35:42;16.10;99.90
25280;DHT22;13225;47.804;12.116;2023-05-13T13:38:08;15.90;99.90
25280;DHT22;13225;47.804;12.116;2023-05-13T13:40:34;16.10;99.90
25280;DHT22;13225;47.804;12.116;2023-05-13T13:43:05;16.10;99.90
25280;DHT22;13225;47.804;12.116;2023-05-13T13:45:31;16.00;99.90
25280;DHT22;13225;47.804;12.116;2023-05-13T13:47:58;15.90;99.90
25280;DHT22;13225;47.804;12.116;2023-05-13T13:50:23;16.00;99.90
25280;DHT22;13225;47.804;12.116;2023-05-13T13:52:49;16.00;99.90
25280;DHT22;13225;47.804;12.116;2023-05-13T13:55:17;15.90;99.90
25280;DHT22;13225;47.804;12.116;2023-05-13T13:57:43;15.90;99.90
25280;DHT22;13225;47.804;12.116;2023-05-13T14:00:10;16.00;99.90
25280;DHT22;13225;47.804;12.116;2023-05-13T14:02:35;15.90;99.90
25280;DHT22;13225;47.804;12.116;2023-05-13T14:05:01;15.90;99.90
25280;DHT22;13225;47.804;12.116;2023-05-13T14:07:27;15.80;99.90
25280;DHT22;13225;47.804;12.116;2023-05-13T14:09:52;15.70;99.90
25280;DHT22;13225;47.804;12.116;2023-05-13T14:12:18;15.70;99.90
25280;DHT22;13225;47.804;12.116;2023-05-13T14:14:44;15.70;99.90
25280;DHT22;13225;47.804;12.116;2023-05-13T14:17:09;15.60;99.90
25280;DHT22;13225;47.804;12.116;2023-05-13T14:19:35;15.60;99.90
25280;DHT22;13225;47.804;12.116;2023-05-13T14:22:00;15.70;99.90
25280;DHT22;13225;47.804;12.116;2023-05-13T14:24:26;15.80;99.90
25280;DHT22;13225;47.804;12.116;2023-05-13T14:26:52;15.90;99.90
25280;DHT22;13225;47.804;12.116;2023-05-13T14:29:17;16.10;99.90
25280;DHT22;13225;47.804;12.116;2023-05-13T14:31:43;16.10;99.90
25280;DHT22;13225;47.804;12.116;2023-05-13T14:34:08;16.20;99.90
25280;DHT22;13225;47.804;12.116;2023-05-13T14:36:35;16.40;99.90
25280;DHT22;13225;47.804;12.116;2023-05-13T14:39:00;16.60;99.90
25280;DHT22;13225;47.804;12.116;2023-05-13T14:41:26;16.80;99.90
25280;DHT22;13225;47.804;12.116;2023-05-13T14:43:53;16.80;99.90
25280;DHT22;13225;47.804;12.116;2023-05-13T14:46:19;16.60;99.90
25280;DHT22;13225;47.804;12.116;2023-05-13T14:48:44;16.70;99.90
25280;DHT22;13225;47.804;12.116;2023-05-13T14:51:10;16.70;99.90
25280;DHT22;13225;47.804;12.116;2023-05-13T14:53:37;16.70;99.90
25280;DHT22;13225;47.804;12.116;2023-05-13T14:56:04;16.80;99.90
25280;DHT22;13225;47.804;12.116;2023-05-13T14:58:30;17.00;99.90
25280;DHT22;13225;47.804;12.116;2023-05-13T15:00:56;17.20;99.90
25280;DHT22;13225;47.804;12.116;2023-05-13T15:03:21;17.30;99.90
25280;DHT22;13225;47.804;12.116;2023-05-13T15:05:47;17.50;99.90
25280;DHT22;13225;47.804;12.116;2023-05-13T15:08:14;17.70;99.90
25280;DHT22;13225;47.804;12.116;2023-05-13T15:10:40;17.80;99.90
25280;DHT22;13225;47.804;12.116;2023-05-13T15:13:05;17.70;99.90
25280;DHT22;13225;47.804;12.116;2023-05-13T15:15:31;18.20;99.90
25280;DHT22;13225;47.804;12.116;2023-05-13T15:17:58;18.50;99.90
25280;DHT22;13225;47.804;12.116;2023-05-13T15:20:23;18.40;99.90
25280;DHT22;13225;47.804;12.116;2023-05-13T15:22:49;18.20;99.90
25280;DHT22;13225;47.804;12.116;2023-05-13T15:25:15;18.50;99.90
25280;DHT22;13225;47.804;12.116;2023-05-13T15:27:40;17.80;99.90
25280;DHT22;13225;47.804;12.116;2023-05-13T15:30:06;17.90;99.90
25280;DHT22;13225;47.804;12.116;2023-05-13T15:32:32;18.00;99.90